sensor_id;sensor_type;location;lat;lon;timestamp;P1;P2;P0
59179;PMS7003;44956;52.422;20.818;2024-02-23T00:01:04;22.50;22.00;15.00
59179;PMS7003;44956;52.422;20.818;2024-02-23T00:04:25;30.25;27.50;17.75
59179;PMS7003;44956;52.422;20.818;2024-02-23T00:07:28;32.75;28.50;19.50
59179;PMS7003;44956;52.422;20.818;2024-02-23T00:10:30;24.25;23.00;16.00
59179;PMS7003;44956;52.422;20.818;2024-02-23T00:13:33;30.50;24.50;16.00
59179;PMS7003;44956;52.422;20.818;2024-02-23T00:16:39;28.75;24.00;15.00
59179;PMS7003;44956;52.422;20.818;2024-02-23T00:19:44;32.00;27.25;18.50
59179;PMS7003;44956;52.422;20.818;2024-02-23T00:22:47;30.25;25.00;16.50
59179;PMS7003;44956;52.422;20.818;2024-02-23T00:25:50;29.50;28.50;18.50
59179;PMS7003;44956;52.422;20.818;2024-02-23T00:28:53;33.50;28.50;16.00
59179;PMS7003;44956;52.422;20.818;2024-02-23T00:31:56;27.75;24.75;16.50
59179;PMS7003;44956;52.422;20.818;2024-02-23T00:34:58;30.00;26.00;15.00
59179;PMS7003;44956;52.422;20.818;2024-02-23T00:38:01;26.75;25.25;17.00
59179;PMS7003;44956;52.422;20.818;2024-02-23T00:41:03;29.75;27.25;16.50
59179;PMS7003;44956;52.422;20.818;2024-02-23T00:44:07;26.75;26.00;16.25
59179;PMS7003;44956;52.422;20.818;2024-02-23T00:47:09;31.25;28.50;16.75
59179;PMS7003;44956;52.422;20.818;2024-02-23T00:50:13;18.50;17.00;15.50
59179;PMS7003;44956;52.422;20.818;2024-02-23T00:53:16;23.75;22.50;15.00
59179;PMS7003;44956;52.422;20.818;2024-02-23T00:56:20;27.50;25.00;16.50
59179;PMS7003;44956;52.422;20.818;2024-02-23T00:59:30;26.50;25.25;15.50
59179;PMS7003;44956;52.422;20.818;2024-02-23T01:02:33;27.75;22.50;17.50
59179;PMS7003;44956;52.422;20.818;2024-02-23T01:05:36;27.75;24.25;16.25
59179;PMS7003;44956;52.422;20.818;2024-02-23T01:08:40;33.00;31.00;17.75
59179;PMS7003;44956;52.422;20.818;2024-02-23T01:11:42;29.50;24.75;14.50
59179;PMS7003;44956;52.422;20.818;2024-02-23T01:14:45;28.75;24.00;16.75
59179;PMS7003;44956;52.422;20.818;2024-02-23T01:17:50;23.50;23.00;15.00
59179;PMS7003;44956;52.422;20.818;2024-02-23T01:20:53;26.75;26.25;16.25
59179;PMS7003;44956;52.422;20.818;2024-02-23T01:23:56;28.50;24.00;15.50
59179;PMS7003;44956;52.422;20.818;2024-02-23T01:26:59;27.50;23.00;15.25
59179;PMS7003;44956;52.422;20.818;2024-02-23T01:30:02;27.25;23.50;15.75
59179;PMS7003;44956;52.422;20.818;2024-02-23T01:33:05;29.00;24.25;16.75
59179;PMS7003;44956;52.422;20.818;2024-02-23T01:36:08;24.75;24.00;15.00
59179;PMS7003;44956;52.422;20.818;2024-02-23T01:39:13;22.25;22.25;15.75
59179;PMS7003;44956;52.422;20.818;2024-02-23T01:42:15;29.50;24.00;16.75
59179;PMS7003;44956;52.422;20.818;2024-02-23T01:45:18;8.25;8.25;5.00
59179;PMS7003;44956;52.422;20.818;2024-02-23T01:48:20;27.50;24.00;15.00
59179;PMS7003;44956;52.422;20.818;2024-02-23T01:51:25;27.25;23.75;15.00
59179;PMS7003;44956;52.422;20.818;2024-02-23T01:54:28;23.75;22.50;14.00
59179;PMS7003;44956;52.422;20.818;2024-02-23T01:57:33;27.00;22.25;14.00
59179;PMS7003;44956;52.422;20.818;2024-02-23T02:00:50;25.25;21.25;16.00
59179;PMS7003;44956;52.422;20.818;2024-02-23T02:03:53;29.25;24.25;14.75
59179;PMS7003;44956;52.422;20.818;2024-02-23T02:06:57;24.25;20.00;15.00
59179;PMS7003;44956;52.422;20.818;2024-02-23T02:10:01;25.00;24.75;14.25
59179;PMS7003;44956;52.422;20.818;2024-02-23T02:13:06;25.25;20.50;13.75
59179;PMS7003;44956;52.422;20.818;2024-02-23T02:16:08;21.25;20.25;15.00
59179;PMS7003;44956;52.422;20.818;2024-02-23T02:19:13;21.75;21.75;14.75
59179;PMS7003;44956;52.422;20.818;2024-02-23T02:22:16;24.00;20.75;14.00
59179;PMS7003;44956;52.422;20.818;2024-02-23T02:25:19;25.00;21.00;14.00
59179;PMS7003;44956;52.422;20.818;2024-02-23T02:28:22;21.00;20.00;15.00
59179;PMS7003;44956;52.422;20.818;2024-02-23T02:31:25;26.50;21.25;14.50
59179;PMS7003;44956;52.422;20.818;2024-02-23T02:34:28;18.00;17.25;11.50
59179;PMS7003;44956;52.422;20.818;2024-02-23T02:37:31;21.25;20.00;14.00
59179;PMS7003;44956;52.422;20.818;2024-02-23T02:40:33;21.00;20.50;13.75
59179;PMS7003;44956;52.422;20.818;2024-02-23T02:43:36;26.50;20.50;15.00
59179;PMS7003;44956;52.422;20.818;2024-02-23T02:46:40;24.75;23.00;14.75
59179;PMS7003;44956;52.422;20.818;2024-02-23T02:49:42;30.00;22.50;15.00
59179;PMS7003;44956;52.422;20.818;2024-02-23T02:52:45;21.75;20.00;13.00
59179;PMS7003;44956;52.422;20.818;2024-02-23T02:55:48;23.50;19.25;12.00
59179;PMS7003;44956;52.422;20.818;2024-02-23T02:58:51;22.00;22.00;14.00
59179;PMS7003;44956;52.422;20.818;2024-02-23T03:01:53;17.00;17.00;12.00
59179;PMS7003;44956;52.422;20.818;2024-02-23T03:04:57;20.50;17.25;13.25
59179;PMS7003;44956;52.422;20.818;2024-02-23T03:08:00;20.75;19.00;12.00
59179;PMS7003;44956;52.422;20.818;2024-02-23T03:11:03;22.25;20.50;12.25
59179;PMS7003;44956;52.422;20.818;2024-02-23T03:14:05;23.50;21.75;14.50
59179;PMS7003;44956;52.422;20.818;2024-02-23T03:17:08;21.50;21.50;12.75
59179;PMS7003;44956;52.422;20.818;2024-02-23T03:20:12;25.00;21.25;12.00
59179;PMS7003;44956;52.422;20.818;2024-02-23T03:23:15;24.25;20.00;12.00
59179;PMS7003;44956;52.422;20.818;2024-02-23T03:26:17;24.25;23.25;15.25
59179;PMS7003;44956;52.422;20.818;2024-02-23T03:29:20;19.50;19.50;12.00
59179;PMS7003;44956;52.422;20.818;2024-02-23T03:32:26;11.00;11.00;11.00
59179;PMS7003;44956;52.422;20.818;2024-02-23T03:35:29;22.00;22.00;14.75
59179;PMS7003;44956;52.422;20.818;2024-02-23T03:38:31;20.75;17.25;12.75
59179;PMS7003;44956;52.422;20.818;2024-02-23T03:41:36;23.75;23.75;15.75
59179;PMS7003;44956;52.422;20.818;2024-02-23T03:44:39;20.75;20.75;12.75
59179;PMS7003;44956;52.422;20.818;2024-02-23T03:47:44;20.50;19.50;12.00
59179;PMS7003;44956;52.422;20.818;2024-02-23T03:50:46;19.75;19.00;14.75
59179;PMS7003;44956;52.422;20.818;2024-02-23T03:53:49;21.25;21.25;14.50
59179;PMS7003;44956;52.422;20.818;2024-02-23T03:56:52;23.00;20.00;14.50
59179;PMS7003;44956;52.422;20.818;2024-02-23T03:59:55;24.25;21.75;14.00
59179;PMS7003;44956;52.422;20.818;2024-02-23T04:02:58;20.00;19.00;12.50
59179;PMS7003;44956;52.422;20.818;2024-02-23T04:06:01;25.00;24.00;15.25
59179;PMS7003;44956;52.422;20.818;2024-02-23T04:09:03;20.00;20.00;12.25
59179;PMS7003;44956;52.422;20.818;2024-02-23T04:12:07;24.50;23.25;13.00
59179;PMS7003;44956;52.422;20.818;2024-02-23T04:15:10;21.50;17.25;10.75
59179;PMS7003;44956;52.422;20.818;2024-02-23T04:18:13;25.25;23.25;15.75
59179;PMS7003;44956;52.422;20.818;2024-02-23T04:21:15;18.75;18.00;12.00
59179;PMS7003;44956;52.422;20.818;2024-02-23T04:24:18;20.50;16.00;9.50
59179;PMS7003;44956;52.422;20.818;2024-02-23T04:27:21;22.50;22.50;13.75
59179;PMS7003;44956;52.422;20.818;2024-02-23T04:30:24;22.75;19.75;13.00
59179;PMS7003;44956;52.422;20.818;2024-02-23T04:33:26;22.00;18.00;11.00
59179;PMS7003;44956;52.422;20.818;2024-02-23T04:36:29;20.25;19.25;13.00
59179;PMS7003;44956;52.422;20.818;2024-02-23T04:39:32;22.00;18.75;12.25
59179;PMS7003;44956;52.422;20.818;2024-02-23T04:42:35;25.50;22.75;13.50
59179;PMS7003;44956;52.422;20.818;2024-02-23T04:45:38;23.50;18.75;13.00
59179;PMS7003;44956;52.422;20.818;2024-02-23T04:48:42;26.75;21.25;14.00
59179;PMS7003;44956;52.422;20.818;2024-02-23T04:51:44;25.00;20.25;13.75
59179;PMS7003;44956;52.422;20.818;2024-02-23T04:54:47;20.75;20.75;13.00
59179;PMS7003;44956;52.422;20.818;2024-02-23T04:57:50;22.50;22.00;12.00
59179;PMS7003;44956;52.422;20.818;2024-02-23T05:00:52;20.75;18.75;13.00
59179;PMS7003;44956;52.422;20.818;2024-02-23T05:03:55;23.00;19.25;11.00
59179;PMS7003;44956;52.422;20.818;2024-02-23T05:06:58;23.75;22.75;14.25
59179;PMS7003;44956;52.422;20.818;2024-02-23T05:10:00;20.00;20.00;14.00
59179;PMS7003;44956;52.422;20.818;2024-02-23T05:13:03;21.25;19.75;13.75
59179;PMS7003;44956;52.422;20.818;2024-02-23T05:16:06;23.00;21.75;14.00
59179;PMS7003;44956;52.422;20.818;2024-02-23T05:19:10;25.75;23.50;13.00
59179;PMS7003;44956;52.422;20.818;2024-02-23T05:22:12;20.00;18.50;13.00
59179;PMS7003;44956;52.422;20.818;2024-02-23T05:25:15;22.75;22.75;14.00
59179;PMS7003;44956;52.422;20.818;2024-02-23T05:28:18;21.75;20.25;14.00
59179;PMS7003;44956;52.422;20.818;2024-02-23T05:31:20;22.50;20.00;11.00
59179;PMS7003;44956;52.422;20.818;2024-02-23T05:34:46;21.75;21.75;15.00
59179;PMS7003;44956;52.422;20.818;2024-02-23T05:37:53;21.75;21.25;12.75
59179;PMS7003;44956;52.422;20.818;2024-02-23T05:40:57;21.50;19.75;12.75
59179;PMS7003;44956;52.422;20.818;2024-02-23T05:43:59;20.00;18.25;12.50
59179;PMS7003;44956;52.422;20.818;2024-02-23T05:47:02;18.50;17.75;11.25
59179;PMS7003;44956;52.422;20.818;2024-02-23T05:50:05;15.75;13.75;6.25
59179;PMS7003;44956;52.422;20.818;2024-02-23T05:53:08;19.25;19.25;11.50
59179;PMS7003;44956;52.422;20.818;2024-02-23T05:56:12;26.00;23.00;13.50
59179;PMS7003;44956;52.422;20.818;2024-02-23T05:59:14;21.75;19.00;13.00
59179;PMS7003;44956;52.422;20.818;2024-02-23T06:02:18;29.25;23.00;12.25
59179;PMS7003;44956;52.422;20.818;2024-02-23T06:05:20;18.00;16.50;10.00
59179;PMS7003;44956;52.422;20.818;2024-02-23T06:08:24;19.00;18.25;11.50
59179;PMS7003;44956;52.422;20.818;2024-02-23T06:11:26;23.00;20.25;13.00
59179;PMS7003;44956;52.422;20.818;2024-02-23T06:14:29;18.50;18.50;12.25
59179;PMS7003;44956;52.422;20.818;2024-02-23T06:17:32;22.50;17.50;11.00
59179;PMS7003;44956;52.422;20.818;2024-02-23T06:20:35;25.00;18.25;11.25
59179;PMS7003;44956;52.422;20.818;2024-02-23T06:23:38;21.75;21.75;10.75
59179;PMS7003;44956;52.422;20.818;2024-02-23T06:26:42;21.50;21.50;11.75
59179;PMS7003;44956;52.422;20.818;2024-02-23T06:29:45;18.75;17.50;12.25
59179;PMS7003;44956;52.422;20.818;2024-02-23T06:32:47;19.00;18.50;12.75
59179;PMS7003;44956;52.422;20.818;2024-02-23T06:35:50;22.25;20.00;13.75
59179;PMS7003;44956;52.422;20.818;2024-02-23T06:38:55;20.75;16.50;9.25
59179;PMS7003;44956;52.422;20.818;2024-02-23T06:41:57;28.75;20.75;12.50
59179;PMS7003;44956;52.422;20.818;2024-02-23T06:45:03;13.50;10.25;2.00
59179;PMS7003;44956;52.422;20.818;2024-02-23T06:48:06;18.50;18.00;11.00
59179;PMS7003;44956;52.422;20.818;2024-02-23T06:51:09;20.00;16.50;11.25
59179;PMS7003;44956;52.422;20.818;2024-02-23T06:54:12;21.75;19.00;12.00
59179;PMS7003;44956;52.422;20.818;2024-02-23T06:57:15;20.25;19.50;10.00
59179;PMS7003;44956;52.422;20.818;2024-02-23T07:00:19;18.00;18.00;10.50
59179;PMS7003;44956;52.422;20.818;2024-02-23T07:03:23;22.75;19.75;10.00
59179;PMS7003;44956;52.422;20.818;2024-02-23T07:06:27;15.75;15.00;9.75
59179;PMS7003;44956;52.422;20.818;2024-02-23T07:09:33;17.50;15.25;9.00
59179;PMS7003;44956;52.422;20.818;2024-02-23T07:12:36;18.25;15.00;10.25
59179;PMS7003;44956;52.422;20.818;2024-02-23T07:15:39;22.75;18.25;11.50
59179;PMS7003;44956;52.422;20.818;2024-02-23T07:18:42;23.25;21.25;12.25
59179;PMS7003;44956;52.422;20.818;2024-02-23T07:21:45;15.75;15.75;10.50
59179;PMS7003;44956;52.422;20.818;2024-02-23T07:24:47;18.25;16.25;10.00
59179;PMS7003;44956;52.422;20.818;2024-02-23T07:27:51;19.50;18.25;11.00
59179;PMS7003;44956;52.422;20.818;2024-02-23T07:30:54;22.75;19.50;12.25
59179;PMS7003;44956;52.422;20.818;2024-02-23T07:33:57;20.50;19.25;11.00
59179;PMS7003;44956;52.422;20.818;2024-02-23T07:36:59;21.00;19.25;11.00
59179;PMS7003;44956;52.422;20.818;2024-02-23T07:40:03;22.00;19.00;12.75
59179;PMS7003;44956;52.422;20.818;2024-02-23T07:43:06;18.75;15.50;10.00
59179;PMS7003;44956;52.422;20.818;2024-02-23T07:46:09;19.25;18.25;12.25
59179;PMS7003;44956;52.422;20.818;2024-02-23T07:49:12;18.00;16.75;11.50
59179;PMS7003;44956;52.422;20.818;2024-02-23T07:52:15;21.25;19.50;11.00
59179;PMS7003;44956;52.422;20.818;2024-02-23T07:55:18;19.75;19.25;10.00
59179;PMS7003;44956;52.422;20.818;2024-02-23T07:58:20;19.00;18.25;11.25
59179;PMS7003;44956;52.422;20.818;2024-02-23T08:01:23;15.75;12.25;10.75
59179;PMS7003;44956;52.422;20.818;2024-02-23T08:04:26;21.25;19.25;11.75
59179;PMS7003;44956;52.422;20.818;2024-02-23T08:07:29;15.75;15.75;10.00
59179;PMS7003;44956;52.422;20.818;2024-02-23T08:10:33;19.25;16.75;10.00
59179;PMS7003;44956;52.422;20.818;2024-02-23T08:13:35;16.00;14.25;9.00
59179;PMS7003;44956;52.422;20.818;2024-02-23T08:16:38;17.25;16.00;10.75
59179;PMS7003;44956;52.422;20.818;2024-02-23T08:19:41;12.50;11.50;9.75
59179;PMS7003;44956;52.422;20.818;2024-02-23T08:22:44;18.00;18.00;11.00
59179;PMS7003;44956;52.422;20.818;2024-02-23T08:25:48;20.00;19.00;13.75
59179;PMS7003;44956;52.422;20.818;2024-02-23T08:28:51;14.75;14.75;10.25
59179;PMS7003;44956;52.422;20.818;2024-02-23T08:31:53;23.50;20.25;12.25
59179;PMS7003;44956;52.422;20.818;2024-02-23T08:34:56;20.00;20.00;11.00
59179;PMS7003;44956;52.422;20.818;2024-02-23T08:38:01;27.00;21.75;13.25
59179;PMS7003;44956;52.422;20.818;2024-02-23T08:41:04;25.50;22.50;13.25
59179;PMS7003;44956;52.422;20.818;2024-02-23T08:44:07;24.75;19.25;11.00
59179;PMS7003;44956;52.422;20.818;2024-02-23T08:47:10;21.00;17.50;11.75
59179;PMS7003;44956;52.422;20.818;2024-02-23T08:50:12;21.25;20.75;11.25
59179;PMS7003;44956;52.422;20.818;2024-02-23T08:53:17;24.75;24.00;14.50
59179;PMS7003;44956;52.422;20.818;2024-02-23T08:56:19;23.75;22.00;14.50
59179;PMS7003;44956;52.422;20.818;2024-02-23T08:59:22;25.00;24.75;16.25
59179;PMS7003;44956;52.422;20.818;2024-02-23T09:02:25;21.50;19.50;12.00
59179;PMS7003;44956;52.422;20.818;2024-02-23T09:05:28;24.25;22.25;15.00
59179;PMS7003;44956;52.422;20.818;2024-02-23T09:08:31;27.00;25.50;15.50
59179;PMS7003;44956;52.422;20.818;2024-02-23T09:11:33;24.75;22.50;15.00
59179;PMS7003;44956;52.422;20.818;2024-02-23T09:14:36;29.50;26.00;14.50
59179;PMS7003;44956;52.422;20.818;2024-02-23T09:17:43;25.00;24.25;16.00
59179;PMS7003;44956;52.422;20.818;2024-02-23T09:20:46;20.50;20.50;11.50
59179;PMS7003;44956;52.422;20.818;2024-02-23T09:23:49;24.25;22.00;15.25
59179;PMS7003;44956;52.422;20.818;2024-02-23T09:26:52;22.00;17.00;12.00
59179;PMS7003;44956;52.422;20.818;2024-02-23T09:29:55;22.50;21.50;14.75
59179;PMS7003;44956;52.422;20.818;2024-02-23T09:32:57;21.50;21.00;12.50
59179;PMS7003;44956;52.422;20.818;2024-02-23T09:36:00;29.75;24.75;13.00
59179;PMS7003;44956;52.422;20.818;2024-02-23T09:39:04;23.50;21.50;12.75
59179;PMS7003;44956;52.422;20.818;2024-02-23T09:42:09;22.50;22.50;16.25
59179;PMS7003;44956;52.422;20.818;2024-02-23T09:45:13;20.00;20.00;13.00
59179;PMS7003;44956;52.422;20.818;2024-02-23T09:48:16;29.75;22.50;16.00
59179;PMS7003;44956;52.422;20.818;2024-02-23T09:51:21;36.00;27.25;16.50
59179;PMS7003;44956;52.422;20.818;2024-02-23T09:54:26;26.25;26.00;15.00
59179;PMS7003;44956;52.422;20.818;2024-02-23T09:57:28;20.25;17.50;11.00
59179;PMS7003;44956;52.422;20.818;2024-02-23T10:00:31;26.75;26.75;18.00
59179;PMS7003;44956;52.422;20.818;2024-02-23T10:03:35;19.50;17.50;12.00
59179;PMS7003;44956;52.422;20.818;2024-02-23T10:06:40;23.25;21.00;13.50
59179;PMS7003;44956;52.422;20.818;2024-02-23T10:09:42;24.50;24.50;15.00
59179;PMS7003;44956;52.422;20.818;2024-02-23T10:12:45;21.75;18.75;12.50
59179;PMS7003;44956;52.422;20.818;2024-02-23T10:15:48;21.25;18.25;14.00
59179;PMS7003;44956;52.422;20.818;2024-02-23T10:19:11;25.25;23.00;14.75
59179;PMS7003;44956;52.422;20.818;2024-02-23T10:22:13;22.00;21.25;12.50
59179;PMS7003;44956;52.422;20.818;2024-02-23T10:25:17;23.50;23.00;16.00
59179;PMS7003;44956;52.422;20.818;2024-02-23T10:28:19;26.25;23.25;14.50
59179;PMS7003;44956;52.422;20.818;2024-02-23T10:31:24;19.75;18.75;13.50
59179;PMS7003;44956;52.422;20.818;2024-02-23T10:34:27;22.00;22.00;13.00
59179;PMS7003;44956;52.422;20.818;2024-02-23T10:37:32;21.75;21.50;13.75
59179;PMS7003;44956;52.422;20.818;2024-02-23T10:40:35;28.25;23.00;14.00
59179;PMS7003;44956;52.422;20.818;2024-02-23T10:43:46;23.75;21.75;13.75
59179;PMS7003;44956;52.422;20.818;2024-02-23T10:46:50;21.00;18.75;12.50
59179;PMS7003;44956;52.422;20.818;2024-02-23T10:49:53;24.75;23.50;14.75
59179;PMS7003;44956;52.422;20.818;2024-02-23T10:52:57;22.75;20.75;13.75
59179;PMS7003;44956;52.422;20.818;2024-02-23T10:56:01;26.75;24.25;16.50
59179;PMS7003;44956;52.422;20.818;2024-02-23T10:59:06;23.75;20.25;13.00
59179;PMS7003;44956;52.422;20.818;2024-02-23T11:02:10;24.50;22.25;14.25
59179;PMS7003;44956;52.422;20.818;2024-02-23T11:05:14;23.00;23.00;16.25
59179;PMS7003;44956;52.422;20.818;2024-02-23T11:08:18;25.50;24.75;16.50
59179;PMS7003;44956;52.422;20.818;2024-02-23T11:11:23;26.50;25.50;15.50
59179;PMS7003;44956;52.422;20.818;2024-02-23T11:14:44;21.25;21.25;13.50
59179;PMS7003;44956;52.422;20.818;2024-02-23T11:17:49;25.50;24.25;16.00
59179;PMS7003;44956;52.422;20.818;2024-02-23T11:20:53;28.50;24.00;15.50
59179;PMS7003;44956;52.422;20.818;2024-02-23T11:24:01;27.50;23.25;15.50
59179;PMS7003;44956;52.422;20.818;2024-02-23T11:27:12;24.00;24.00;15.25
59179;PMS7003;44956;52.422;20.818;2024-02-23T11:30:16;23.75;22.25;14.75
59179;PMS7003;44956;52.422;20.818;2024-02-23T11:33:26;27.25;25.50;16.25
59179;PMS7003;44956;52.422;20.818;2024-02-23T11:36:32;22.00;22.00;14.25
59179;PMS7003;44956;52.422;20.818;2024-02-23T11:39:37;26.75;25.00;16.50
59179;PMS7003;44956;52.422;20.818;2024-02-23T11:42:42;26.00;23.00;15.00
59179;PMS7003;44956;52.422;20.818;2024-02-23T11:45:46;25.25;22.50;14.00
59179;PMS7003;44956;52.422;20.818;2024-02-23T11:48:49;28.00;22.25;13.75
59179;PMS7003;44956;52.422;20.818;2024-02-23T11:51:58;25.75;23.75;15.50
59179;PMS7003;44956;52.422;20.818;2024-02-23T11:55:01;25.00;22.50;14.25
59179;PMS7003;44956;52.422;20.818;2024-02-23T11:58:05;25.75;25.25;15.75
59179;PMS7003;44956;52.422;20.818;2024-02-23T12:01:18;27.00;26.50;17.75
59179;PMS7003;44956;52.422;20.818;2024-02-23T12:04:22;25.50;25.25;15.25
59179;PMS7003;44956;52.422;20.818;2024-02-23T12:07:24;28.75;23.75;16.25
59179;PMS7003;44956;52.422;20.818;2024-02-23T12:10:28;27.00;26.50;18.75
59179;PMS7003;44956;52.422;20.818;2024-02-23T12:13:32;25.75;22.75;14.00
59179;PMS7003;44956;52.422;20.818;2024-02-23T12:16:35;27.75;27.50;16.50
59179;PMS7003;44956;52.422;20.818;2024-02-23T12:19:38;30.25;29.25;18.00
59179;PMS7003;44956;52.422;20.818;2024-02-23T12:22:44;25.00;23.50;17.00
59179;PMS7003;44956;52.422;20.818;2024-02-23T12:25:56;24.75;24.25;17.25
59179;PMS7003;44956;52.422;20.818;2024-02-23T12:29:00;24.75;22.00;15.25
59179;PMS7003;44956;52.422;20.818;2024-02-23T12:32:06;25.00;24.00;17.00
59179;PMS7003;44956;52.422;20.818;2024-02-23T12:35:12;26.75;23.50;14.00
59179;PMS7003;44956;52.422;20.818;2024-02-23T12:38:15;25.25;23.25;15.50
59179;PMS7003;44956;52.422;20.818;2024-02-23T12:41:18;29.75;27.75;17.75
59179;PMS7003;44956;52.422;20.818;2024-02-23T12:44:20;26.00;24.00;17.00
59179;PMS7003;44956;52.422;20.818;2024-02-23T12:47:24;24.25;22.50;13.25
59179;PMS7003;44956;52.422;20.818;2024-02-23T12:50:29;24.00;24.00;15.25
59179;PMS7003;44956;52.422;20.818;2024-02-23T12:53:37;22.25;21.00;14.50
59179;PMS7003;44956;52.422;20.818;2024-02-23T12:56:41;24.75;24.75;16.00
59179;PMS7003;44956;52.422;20.818;2024-02-23T12:59:45;24.00;23.00;14.75
59179;PMS7003;44956;52.422;20.818;2024-02-23T13:02:47;33.25;29.50;18.75
59179;PMS7003;44956;52.422;20.818;2024-02-23T13:05:50;29.75;27.25;16.00
59179;PMS7003;44956;52.422;20.818;2024-02-23T13:08:53;29.75;28.25;18.00
59179;PMS7003;44956;52.422;20.818;2024-02-23T13:11:56;32.75;29.00;18.75
59179;PMS7003;44956;52.422;20.818;2024-02-23T13:14:58;24.25;23.75;17.50
59179;PMS7003;44956;52.422;20.818;2024-02-23T13:18:02;29.75;26.75;17.00
59179;PMS7003;44956;52.422;20.818;2024-02-23T13:21:05;29.00;25.50;14.75
59179;PMS7003;44956;52.422;20.818;2024-02-23T13:24:08;28.75;25.25;18.25
59179;PMS7003;44956;52.422;20.818;2024-02-23T13:27:10;35.50;30.25;18.50
59179;PMS7003;44956;52.422;20.818;2024-02-23T13:30:13;28.25;28.25;18.00
59179;PMS7003;44956;52.422;20.818;2024-02-23T13:33:16;36.75;32.75;18.75
59179;PMS7003;44956;52.422;20.818;2024-02-23T13:36:20;29.75;28.00;18.75
59179;PMS7003;44956;52.422;20.818;2024-02-23T13:39:24;30.75;29.00;19.00
59179;PMS7003;44956;52.422;20.818;2024-02-23T13:42:27;33.00;29.50;18.75
59179;PMS7003;44956;52.422;20.818;2024-02-23T13:45:30;28.50;28.25;17.00
59179;PMS7003;44956;52.422;20.818;2024-02-23T13:48:32;34.50;28.50;18.00
59179;PMS7003;44956;52.422;20.818;2024-02-23T13:51:35;28.00;27.25;17.75
59179;PMS7003;44956;52.422;20.818;2024-02-23T13:54:38;31.25;28.25;17.50
59179;PMS7003;44956;52.422;20.818;2024-02-23T13:57:41;26.25;25.25;17.50
59179;PMS7003;44956;52.422;20.818;2024-02-23T14:00:43;24.50;23.75;15.00
59179;PMS7003;44956;52.422;20.818;2024-02-23T14:03:46;33.75;26.00;17.00
59179;PMS7003;44956;52.422;20.818;2024-02-23T14:06:49;24.00;22.00;17.25
59179;PMS7003;44956;52.422;20.818;2024-02-23T14:09:52;24.75;24.25;17.00
59179;PMS7003;44956;52.422;20.818;2024-02-23T14:12:54;21.50;21.50;13.50
59179;PMS7003;44956;52.422;20.818;2024-02-23T14:15:59;26.25;22.75;14.50
59179;PMS7003;44956;52.422;20.818;2024-02-23T14:19:03;23.25;22.25;14.50
59179;PMS7003;44956;52.422;20.818;2024-02-23T14:22:06;23.50;21.75;14.00
59179;PMS7003;44956;52.422;20.818;2024-02-23T14:25:09;24.75;19.75;12.00
59179;PMS7003;44956;52.422;20.818;2024-02-23T14:28:11;29.00;25.50;15.25
59179;PMS7003;44956;52.422;20.818;2024-02-23T14:31:15;26.25;23.75;16.00
59179;PMS7003;44956;52.422;20.818;2024-02-23T14:34:18;28.50;24.75;16.25
59179;PMS7003;44956;52.422;20.818;2024-02-23T14:37:23;29.25;25.50;16.75
59179;PMS7003;44956;52.422;20.818;2024-02-23T14:40:26;34.75;25.50;17.50
59179;PMS7003;44956;52.422;20.818;2024-02-23T14:43:29;26.75;23.25;15.00
59179;PMS7003;44956;52.422;20.818;2024-02-23T14:46:33;19.75;19.00;12.00
59179;PMS7003;44956;52.422;20.818;2024-02-23T14:49:36;25.75;23.75;15.00
59179;PMS7003;44956;52.422;20.818;2024-02-23T14:52:38;27.75;24.75;13.50
59179;PMS7003;44956;52.422;20.818;2024-02-23T14:55:41;26.25;24.00;15.50
59179;PMS7003;44956;52.422;20.818;2024-02-23T14:58:44;23.25;22.50;14.25
59179;PMS7003;44956;52.422;20.818;2024-02-23T15:01:47;28.75;26.00;17.00
59179;PMS7003;44956;52.422;20.818;2024-02-23T15:04:50;24.50;21.25;14.75
59179;PMS7003;44956;52.422;20.818;2024-02-23T15:07:53;27.50;27.00;18.00
59179;PMS7003;44956;52.422;20.818;2024-02-23T15:10:55;24.25;22.00;14.00
59179;PMS7003;44956;52.422;20.818;2024-02-23T15:13:58;32.25;29.00;16.25
59179;PMS7003;44956;52.422;20.818;2024-02-23T15:17:03;24.75;23.50;14.25
59179;PMS7003;44956;52.422;20.818;2024-02-23T15:20:06;25.50;24.00;14.75
59179;PMS7003;44956;52.422;20.818;2024-02-23T15:23:12;29.75;26.00;16.00
59179;PMS7003;44956;52.422;20.818;2024-02-23T15:26:14;25.50;24.25;14.50
59179;PMS7003;44956;52.422;20.818;2024-02-23T15:29:17;26.50;25.75;13.25
59179;PMS7003;44956;52.422;20.818;2024-02-23T15:32:20;28.25;26.75;15.75
59179;PMS7003;44956;52.422;20.818;2024-02-23T15:35:24;28.25;26.00;15.00
59179;PMS7003;44956;52.422;20.818;2024-02-23T15:38:29;28.50;24.75;15.75
59179;PMS7003;44956;52.422;20.818;2024-02-23T15:41:32;5.50;3.25;0.00
59179;PMS7003;44956;52.422;20.818;2024-02-23T15:44:36;22.75;21.25;14.00
59179;PMS7003;44956;52.422;20.818;2024-02-23T15:47:39;25.25;23.25;15.00
59179;PMS7003;44956;52.422;20.818;2024-02-23T15:50:42;27.00;22.75;14.50
59179;PMS7003;44956;52.422;20.818;2024-02-23T15:54:05;24.50;23.50;14.00
59179;PMS7003;44956;52.422;20.818;2024-02-23T15:57:09;19.50;19.00;12.75
59179;PMS7003;44956;52.422;20.818;2024-02-23T16:00:12;22.25;21.75;11.00
59179;PMS7003;44956;52.422;20.818;2024-02-23T16:03:15;30.25;26.75;16.00
59179;PMS7003;44956;52.422;20.818;2024-02-23T16:06:19;30.25;27.50;16.00
59179;PMS7003;44956;52.422;20.818;2024-02-23T16:09:21;20.25;18.75;12.00
59179;PMS7003;44956;52.422;20.818;2024-02-23T16:12:25;26.50;22.50;16.50
59179;PMS7003;44956;52.422;20.818;2024-02-23T16:15:27;30.25;29.00;14.00
59179;PMS7003;44956;52.422;20.818;2024-02-23T16:18:30;27.50;24.75;15.75
59179;PMS7003;44956;52.422;20.818;2024-02-23T16:21:35;31.00;28.25;19.00
59179;PMS7003;44956;52.422;20.818;2024-02-23T16:24:40;36.75;33.75;21.75
59179;PMS7003;44956;52.422;20.818;2024-02-23T16:27:46;41.00;37.00;23.75
59179;PMS7003;44956;52.422;20.818;2024-02-23T16:30:48;36.50;34.50;23.00
59179;PMS7003;44956;52.422;20.818;2024-02-23T16:33:52;31.75;31.75;18.50
59179;PMS7003;44956;52.422;20.818;2024-02-23T16:36:54;39.50;35.50;19.75
59179;PMS7003;44956;52.422;20.818;2024-02-23T16:39:57;43.25;37.50;23.25
59179;PMS7003;44956;52.422;20.818;2024-02-23T16:43:01;36.50;32.75;19.50
59179;PMS7003;44956;52.422;20.818;2024-02-23T16:46:04;43.00;38.75;22.75
59179;PMS7003;44956;52.422;20.818;2024-02-23T16:49:09;37.00;32.75;22.00
59179;PMS7003;44956;52.422;20.818;2024-02-23T16:52:12;41.50;37.50;22.25
59179;PMS7003;44956;52.422;20.818;2024-02-23T16:55:15;42.50;35.25;21.00